createdAt,value
2022-10-09T00:01:01.854Z,95369.97
2022-10-09T00:03:28.600Z,95366.94
2022-10-09T00:05:55.311Z,95385.44
2022-10-09T00:08:22.058Z,95373.44
2022-10-09T00:10:49.755Z,95373.78
2022-10-09T00:13:16.367Z,95363.47
2022-10-09T00:15:45.212Z,95361.81
2022-10-09T00:18:16.234Z,95363.66
2022-10-09T00:20:45.084Z,95351.22
2022-10-09T00:23:17.455Z,95369.66
2022-10-09T00:26:12.034Z,95361.28
2022-10-09T00:28:39.080Z,95361.25
2022-10-09T00:31:09.875Z,95354.81
2022-10-09T00:33:37.277Z,95352.84
2022-10-09T00:36:09.713Z,95351.78
2022-10-09T00:38:36.830Z,95345.53
2022-10-09T00:41:03.665Z,95346.41
2022-10-09T00:44:00.884Z,95344.78
2022-10-09T00:46:42.075Z,95353.25
2022-10-09T00:49:14.811Z,95342.47
2022-10-09T00:51:44.175Z,95336.41
2022-10-09T00:54:15.611Z,95348.06
2022-10-09T00:56:42.762Z,95299.03
2022-10-09T00:59:10.749Z,95338.81
2022-10-09T01:01:39.178Z,95344.97
2022-10-09T01:04:05.811Z,95337.00
2022-10-09T01:07:11.967Z,95335.03
2022-10-09T01:09:59.701Z,95345.09
2022-10-09T01:12:49.172Z,95335.84
2022-10-09T01:15:23.182Z,95339.56
2022-10-09T01:17:49.709Z,95342.75
2022-10-09T01:20:31.006Z,95348.31
2022-10-09T01:23:51.157Z,95330.59
2022-10-09T01:26:34.016Z,95345.69
2022-10-09T01:29:06.835Z,95345.69
2022-10-09T01:31:39.425Z,95346.91
2022-10-09T01:34:07.872Z,95347.03
2022-10-09T01:36:36.415Z,95337.00
2022-10-09T01:39:06.606Z,95332.56
2022-10-09T01:41:33.688Z,95347.16
2022-10-09T01:44:00.597Z,95345.00
2022-10-09T01:46:28.940Z,95351.44
2022-10-09T01:49:23.216Z,95349.81
2022-10-09T01:52:05.624Z,95342.66
2022-10-09T01:54:37.052Z,95343.84
2022-10-09T01:57:06.985Z,95348.19
2022-10-09T01:59:39.402Z,95343.19
2022-10-09T02:02:07.722Z,95346.13
2022-10-09T02:04:37.204Z,95352.19
2022-10-09T02:07:06.057Z,95344.16
2022-10-09T02:09:33.901Z,95354.34
2022-10-09T02:12:04.617Z,95352.28
2022-10-09T02:14:31.261Z,95358.66
2022-10-09T02:17:18.757Z,95349.22
2022-10-09T02:19:56.677Z,95355.19
2022-10-09T02:22:30.138Z,95363.22
2022-10-09T02:25:03.222Z,95366.38
2022-10-09T02:27:30.743Z,95358.66
2022-10-09T02:29:59.095Z,95351.63
2022-10-09T02:32:25.779Z,95360.88
2022-10-09T02:34:52.754Z,95374.22
2022-10-09T02:37:19.354Z,95369.72
2022-10-09T02:39:46.131Z,95375.16
2022-10-09T02:42:12.770Z,95367.97
2022-10-09T02:44:39.488Z,95362.44
2022-10-09T02:47:06.230Z,95365.16
2022-10-09T02:49:32.887Z,95366.16
2022-10-09T02:51:59.771Z,95356.66
2022-10-09T02:54:26.476Z,95356.13
2022-10-09T02:56:53.146Z,95366.78
2022-10-09T02:59:19.702Z,95378.94
2022-10-09T03:01:46.610Z,95365.78
2022-10-09T03:04:13.422Z,95365.25
2022-10-09T03:06:40.250Z,95374.69
2022-10-09T03:09:06.836Z,95364.94
2022-10-09T03:11:33.568Z,95368.47
2022-10-09T03:14:00.813Z,95375.53
2022-10-09T03:16:28.249Z,95376.34
2022-10-09T03:18:55.917Z,95367.34
2022-10-09T03:21:27.431Z,95386.06
2022-10-09T03:23:54.868Z,95373.34
2022-10-09T03:26:23.691Z,95380.09
2022-10-09T03:28:52.498Z,95386.63
2022-10-09T03:31:46.933Z,95399.13
2022-10-09T03:34:08.264Z,95381.28
2022-10-09T03:36:34.929Z,95385.63
2022-10-09T03:39:01.508Z,95379.75
2022-10-09T03:41:28.155Z,95383.44
2022-10-09T03:43:54.909Z,95400.84
2022-10-09T03:46:21.640Z,95395.63
2022-10-09T03:48:48.238Z,95390.41
2022-10-09T03:51:14.920Z,95387.59
2022-10-09T03:53:41.494Z,95393.78
2022-10-09T03:56:08.075Z,95367.63
2022-10-09T03:58:34.649Z,95388.69
2022-10-09T04:01:01.571Z,95385.41
2022-10-09T04:03:29.210Z,95388.66
2022-10-09T04:05:55.888Z,95389.84
2022-10-09T04:08:22.422Z,95387.59
2022-10-09T04:10:49.069Z,95378.25
2022-10-09T04:13:15.898Z,95393.66
2022-10-09T04:15:50.244Z,95397.25
2022-10-09T04:18:17.088Z,95381.16
2022-10-09T04:20:55.630Z,95400.72
2022-10-09T04:23:25.318Z,95398.97
2022-10-09T04:25:56.526Z,95407.88
2022-10-09T04:28:23.974Z,95410.25
2022-10-09T04:30:50.916Z,95408.41
2022-10-09T04:33:17.804Z,95412.84
2022-10-09T04:35:45.922Z,95418.06
2022-10-09T04:38:12.850Z,95413.03
2022-10-09T04:40:39.876Z,95409.50
2022-10-09T04:43:06.647Z,95408.81
2022-10-09T04:45:33.314Z,95402.63
2022-10-09T04:48:00.131Z,95412.41
2022-10-09T04:50:26.679Z,95420.97
2022-10-09T04:52:53.225Z,95417.16
2022-10-09T04:55:19.876Z,95425.72
2022-10-09T04:57:46.653Z,95418.13
2022-10-09T05:00:13.989Z,95425.81
2022-10-09T05:02:40.606Z,95434.97
2022-10-09T05:05:07.614Z,95429.31
2022-10-09T05:07:34.187Z,95433.66
2022-10-09T05:10:00.735Z,95437.50
2022-10-09T05:12:27.348Z,95436.25
2022-10-09T05:14:53.948Z,95437.44
2022-10-09T05:17:23.289Z,95443.31
2022-10-09T05:19:50.189Z,95436.03
2022-10-09T05:22:16.929Z,95447.91
2022-10-09T05:24:43.573Z,95437.97
2022-10-09T05:27:10.280Z,95439.22
2022-10-09T05:29:37.013Z,95440.75
2022-10-09T05:32:03.744Z,95444.09
2022-10-09T05:34:30.478Z,95442.09
2022-10-09T05:36:57.082Z,95441.19
2022-10-09T05:39:23.798Z,95444.22
2022-10-09T05:41:50.460Z,95444.16
2022-10-09T05:44:17.144Z,95441.97
2022-10-09T05:46:43.954Z,95456.00
2022-10-09T05:49:12.072Z,95450.56
2022-10-09T05:51:41.616Z,95459.34
2022-10-09T05:54:12.867Z,95457.44
2022-10-09T05:56:39.714Z,95462.75
2022-10-09T05:59:13.951Z,95473.63
2022-10-09T06:01:46.906Z,95473.72
2022-10-09T06:04:19.304Z,95480.72
2022-10-09T06:06:48.407Z,95484.22
2022-10-09T06:09:17.156Z,95476.25
2022-10-09T06:11:44.801Z,95484.47
2022-10-09T06:14:13.525Z,95491.00
2022-10-09T06:16:43.402Z,95484.03
2022-10-09T06:19:12.510Z,95490.13
2022-10-09T06:21:39.620Z,95493.34
2022-10-09T06:24:07.433Z,95488.91
2022-10-09T06:26:34.996Z,95501.84
2022-10-09T06:29:03.023Z,95511.41
2022-10-09T06:31:32.485Z,95505.53
2022-10-09T06:34:01.109Z,95507.78
2022-10-09T06:36:30.941Z,95501.84
2022-10-09T06:38:59.634Z,95503.63
2022-10-09T06:41:27.986Z,95513.78
2022-10-09T06:43:57.330Z,95497.47
2022-10-09T06:46:27.635Z,95512.41
2022-10-09T06:48:54.414Z,95508.34
2022-10-09T06:51:24.439Z,95505.06
2022-10-09T06:53:53.193Z,95515.97
2022-10-09T06:56:21.603Z,95506.47
2022-10-09T06:58:48.865Z,95501.50
2022-10-09T07:01:34.281Z,95513.38
2022-10-09T07:04:09.292Z,95519.97
2022-10-09T07:06:42.182Z,95510.56
2022-10-09T07:09:11.663Z,95514.66
2022-10-09T07:11:42.995Z,95514.41
2022-10-09T07:14:11.370Z,95517.25
2022-10-09T07:16:40.557Z,95516.13
2022-10-09T07:19:11.340Z,95522.06
2022-10-09T07:21:40.232Z,95508.16
2022-10-09T07:24:07.789Z,95516.13
2022-10-09T07:26:37.233Z,95504.81
2022-10-09T07:29:06.404Z,95517.97
2022-10-09T07:31:33.105Z,95523.75
2022-10-09T07:34:00.336Z,95521.13
2022-10-09T07:36:27.473Z,95505.59
2022-10-09T07:38:56.373Z,95523.28
2022-10-09T07:41:25.322Z,95536.47
2022-10-09T07:43:51.994Z,95523.00
2022-10-09T07:46:20.784Z,95520.13
2022-10-09T07:48:47.923Z,95518.13
2022-10-09T07:51:23.631Z,95523.00
2022-10-09T07:53:50.910Z,95525.41
2022-10-09T07:56:19.875Z,95520.41
2022-10-09T07:58:51.293Z,95520.50
2022-10-09T08:01:20.407Z,95518.06
2022-10-09T08:03:48.124Z,95531.81
2022-10-09T08:06:15.115Z,95523.69
2022-10-09T08:08:42.489Z,95510.66
2022-10-09T08:11:14.880Z,95509.56
2022-10-09T08:13:43.078Z,95489.00
2022-10-09T08:16:10.290Z,95506.47
2022-10-09T08:18:37.403Z,95491.69
2022-10-09T08:21:11.087Z,95503.91
2022-10-09T08:23:37.820Z,95506.59
2022-10-09T08:26:05.428Z,95500.75
2022-10-09T08:28:32.155Z,95498.84
2022-10-09T08:30:59.023Z,95503.09
2022-10-09T08:33:26.080Z,95499.44
2022-10-09T08:35:53.524Z,95509.31
2022-10-09T08:38:45.554Z,95507.94
2022-10-09T08:41:14.117Z,95504.78
2022-10-09T08:43:45.456Z,95505.63
2022-10-09T08:46:44.831Z,95481.97
2022-10-09T08:49:26.114Z,95495.34
2022-10-09T08:51:56.657Z,95497.06
2022-10-09T08:54:38.357Z,95470.72
2022-10-09T08:57:12.482Z,95479.06
2022-10-09T08:59:39.261Z,95480.84
2022-10-09T09:02:25.611Z,95481.56
2022-10-09T09:05:27.260Z,95476.81
2022-10-09T09:08:25.055Z,95477.56
2022-10-09T09:11:00.501Z,95471.75
2022-10-09T09:13:45.425Z,95481.22
2022-10-09T09:16:19.095Z,95483.06
2022-10-09T09:19:09.678Z,95484.00
2022-10-09T09:21:53.215Z,95483.97
2022-10-09T09:24:38.071Z,95477.41
2022-10-09T09:27:13.153Z,95468.13
2022-10-09T09:29:57.841Z,95475.56
2022-10-09T09:32:28.006Z,95463.94
2022-10-09T09:35:12.452Z,95472.41
2022-10-09T09:37:39.088Z,95482.66
2022-10-09T09:43:04.837Z,95473.72
2022-10-09T09:45:31.846Z,95478.47
2022-10-09T09:48:06.294Z,95481.19
2022-10-09T09:50:50.470Z,95479.25
2022-10-09T09:53:49.725Z,95479.66
2022-10-09T09:56:17.626Z,95473.44
2022-10-09T09:58:51.108Z,95476.75
2022-10-09T10:01:25.605Z,95477.69
2022-10-09T10:03:55.943Z,95469.47
2022-10-09T10:06:45.854Z,95470.66
2022-10-09T10:09:17.610Z,95472.19
2022-10-09T10:12:04.063Z,95473.44
2022-10-09T10:14:33.322Z,95466.00
2022-10-09T10:17:02.068Z,95469.44
2022-10-09T10:19:36.122Z,95469.03
2022-10-09T10:22:06.525Z,95471.13
2022-10-09T10:24:40.073Z,95464.00
2022-10-09T10:27:25.295Z,95457.75
2022-10-09T10:29:57.988Z,95473.00
2022-10-09T10:32:24.614Z,95472.09
2022-10-09T10:35:20.259Z,95450.84
2022-10-09T10:38:06.359Z,95457.56
2022-10-09T10:40:42.415Z,95456.31
2022-10-09T10:43:42.415Z,95453.25
2022-10-09T10:47:02.845Z,95446.84
2022-10-09T10:49:33.673Z,95434.75
2022-10-09T10:52:16.022Z,95441.16
2022-10-09T10:54:53.347Z,95438.19
2022-10-09T10:57:58.606Z,95438.34
2022-10-09T11:00:27.853Z,95432.06
2022-10-09T11:03:19.431Z,95434.50
2022-10-09T11:06:05.551Z,95434.34
2022-10-09T11:08:54.045Z,95425.06
2022-10-09T11:11:33.891Z,95422.44
2022-10-09T11:14:20.203Z,95420.63
2022-10-09T11:17:00.373Z,95419.50
2022-10-09T11:19:29.945Z,95409.94
2022-10-09T11:22:20.984Z,95414.41
2022-10-09T11:25:05.950Z,95399.94
2022-10-09T11:28:03.546Z,95400.03
2022-10-09T11:30:59.366Z,95395.75
2022-10-09T11:33:46.905Z,95392.63
2022-10-09T11:36:42.455Z,95394.88
2022-10-09T11:39:20.542Z,95402.50
2022-10-09T11:41:49.269Z,95383.81
2022-10-09T11:44:50.090Z,95377.47
2022-10-09T11:47:47.089Z,95387.16
2022-10-09T11:50:18.445Z,95385.34
2022-10-09T11:52:51.782Z,95387.59
2022-10-09T11:55:31.085Z,95368.25
2022-10-09T11:58:20.895Z,95381.53
2022-10-09T12:00:50.808Z,95375.31
2022-10-09T12:03:34.661Z,95370.84
2022-10-09T12:06:14.899Z,95370.56
2022-10-09T12:08:53.523Z,95371.00
2022-10-09T12:11:20.932Z,95376.03
2022-10-09T12:13:53.686Z,95370.53
2022-10-09T12:16:42.151Z,95365.59
2022-10-09T12:19:31.675Z,95371.19
2022-10-09T12:22:06.295Z,95372.91
2022-10-09T12:24:41.837Z,95366.59
2022-10-09T12:27:13.087Z,95365.41
2022-10-09T12:29:45.546Z,95360.34
2022-10-09T12:32:35.556Z,95362.94
2022-10-09T12:35:18.624Z,95357.09
2022-10-09T12:37:45.555Z,95359.88
2022-10-09T12:40:16.762Z,95355.28
2022-10-09T12:42:44.881Z,95355.59
2022-10-09T12:45:21.425Z,95349.25
2022-10-09T12:47:48.842Z,95344.00
2022-10-09T12:50:35.185Z,95362.59
2022-10-09T12:53:17.831Z,95363.56
2022-10-09T12:55:57.827Z,95365.97
2022-10-09T12:58:26.756Z,95365.75
2022-10-09T13:01:01.619Z,95352.38
2022-10-09T13:03:44.069Z,95363.28
2022-10-09T13:06:19.800Z,95355.25
2022-10-09T13:08:54.247Z,95353.94
2022-10-09T13:11:23.851Z,95365.75
2022-10-09T13:13:55.029Z,95356.75
2022-10-09T13:16:23.036Z,95351.63
2022-10-09T13:19:01.073Z,95357.41
2022-10-09T13:21:35.200Z,95338.75
2022-10-09T13:24:10.272Z,95349.25
2022-10-09T13:26:38.920Z,95354.66
2022-10-09T13:29:07.175Z,95350.75
2022-10-09T13:31:36.704Z,95356.63
2022-10-09T13:34:13.848Z,95355.00
2022-10-09T13:36:41.114Z,95354.38
2022-10-09T13:39:14.055Z,95348.91
2022-10-09T13:41:41.401Z,95357.16
2022-10-09T13:44:08.311Z,95355.75
2022-10-09T13:46:35.066Z,95355.41
2022-10-09T13:49:01.770Z,95349.50
2022-10-09T13:51:29.455Z,95347.44
2022-10-09T13:53:56.155Z,95360.16
2022-10-09T13:56:22.950Z,95357.44
2022-10-09T13:58:49.653Z,95348.50
2022-10-09T14:01:17.449Z,95344.03
2022-10-09T14:03:44.085Z,95351.47
2022-10-09T14:06:10.737Z,95356.13
2022-10-09T14:08:37.513Z,95357.16
2022-10-09T14:11:04.271Z,95357.78
2022-10-09T14:13:30.960Z,95348.38
2022-10-09T14:15:57.629Z,95358.78
2022-10-09T14:18:24.497Z,95359.72
2022-10-09T14:20:51.080Z,95351.19
2022-10-09T14:23:17.707Z,95364.06
2022-10-09T14:25:45.010Z,95350.50
2022-10-09T14:28:11.832Z,95360.91
2022-10-09T14:30:42.527Z,95362.50
2022-10-09T14:33:09.989Z,95332.25
2022-10-09T14:35:36.672Z,95369.31
2022-10-09T14:38:03.412Z,95363.66
2022-10-09T14:40:30.087Z,95358.97
2022-10-09T14:42:57.047Z,95368.09
2022-10-09T14:45:23.690Z,95368.63
2022-10-09T14:47:50.308Z,95365.09
2022-10-09T14:50:17.133Z,95376.53
2022-10-09T14:52:44.740Z,95380.00
2022-10-09T14:55:11.480Z,95369.34
2022-10-09T14:57:38.189Z,95365.63
2022-10-09T15:00:05.938Z,95368.94
2022-10-09T15:02:32.744Z,95368.94
2022-10-09T15:04:59.490Z,95360.97
2022-10-09T15:07:28.244Z,95372.00
2022-10-09T15:09:55.437Z,95375.47
2022-10-09T15:12:22.141Z,95371.69
2022-10-09T15:14:49.200Z,95388.78
2022-10-09T15:17:15.835Z,95382.59
2022-10-09T15:19:42.560Z,95376.34
2022-10-09T15:22:09.510Z,95389.88
2022-10-09T15:24:36.134Z,95379.34
2022-10-09T15:27:02.708Z,95387.47
2022-10-09T15:29:29.561Z,95395.78
2022-10-09T15:31:56.240Z,95402.59
2022-10-09T15:34:23.107Z,95398.63
2022-10-09T15:36:49.735Z,95405.22
2022-10-09T15:39:16.431Z,95392.91
2022-10-09T15:41:43.671Z,95394.72
2022-10-09T15:44:16.897Z,95411.81
2022-10-09T15:46:44.729Z,95408.31
2022-10-09T15:49:12.203Z,95412.81
2022-10-09T15:51:39.564Z,95415.81
2022-10-09T15:54:06.864Z,95403.03
2022-10-09T15:56:37.438Z,95392.97
2022-10-09T15:59:06.383Z,95405.53
2022-10-09T16:01:33.203Z,95434.63
2022-10-09T16:03:59.880Z,95439.66
2022-10-09T16:06:26.560Z,95418.78
2022-10-09T16:08:57.729Z,95425.53
2022-10-09T16:11:26.412Z,95437.09
2022-10-09T16:13:54.800Z,95441.28
2022-10-09T16:16:24.139Z,95433.75
2022-10-09T16:18:51.490Z,95438.19
2022-10-09T16:21:24.209Z,95444.66
2022-10-09T16:23:55.863Z,95451.88
2022-10-09T16:26:26.093Z,95452.09
2022-10-09T16:28:52.821Z,95415.59
2022-10-09T16:31:26.071Z,95454.00
2022-10-09T16:33:52.976Z,95436.09
2022-10-09T16:36:19.756Z,95452.34
2022-10-09T16:38:47.014Z,95462.19
2022-10-09T16:41:18.024Z,95468.94
2022-10-09T16:43:54.356Z,95464.38
2022-10-09T16:46:24.329Z,95408.59
2022-10-09T16:48:52.985Z,95464.31
2022-10-09T16:51:23.568Z,95434.78
2022-10-09T16:53:52.410Z,95448.38
2022-10-09T16:56:23.366Z,95436.66
2022-10-09T16:58:54.893Z,95494.53
2022-10-09T17:01:21.867Z,95426.63
2022-10-09T17:03:48.509Z,95483.13
2022-10-09T17:06:23.863Z,95403.78
2022-10-09T17:08:55.390Z,95481.16
2022-10-09T17:11:22.957Z,95488.13
2022-10-09T17:13:49.667Z,95513.66
2022-10-09T17:16:19.635Z,95498.28
2022-10-09T17:18:48.267Z,95493.94
2022-10-09T17:21:18.643Z,95490.31
2022-10-09T17:23:46.592Z,95449.34
2022-10-09T17:26:18.839Z,95509.78
2022-10-09T17:28:47.012Z,95522.28
2022-10-09T17:31:16.442Z,95533.22
2022-10-09T17:33:46.260Z,95527.72
2022-10-09T17:36:19.039Z,95533.84
2022-10-09T17:38:46.987Z,95518.47
2022-10-09T17:41:16.930Z,95503.88
2022-10-09T17:43:44.081Z,95540.00
2022-10-09T17:46:10.961Z,95541.25
2022-10-09T17:48:44.029Z,95542.69
2022-10-09T17:51:16.327Z,95524.13
2022-10-09T17:53:43.443Z,95538.34
2022-10-09T17:56:10.616Z,95534.00
2022-10-09T17:58:37.956Z,95513.50
2022-10-09T18:01:10.020Z,95515.91
2022-10-09T18:03:37.444Z,95541.59
2022-10-09T18:06:06.830Z,95553.00
2022-10-09T18:08:34.500Z,95538.63
2022-10-09T18:11:05.676Z,95543.91
2022-10-09T18:13:32.675Z,95542.03
2022-10-09T18:15:59.542Z,95531.53
2022-10-09T18:18:26.282Z,95545.81
2022-10-09T18:20:53.037Z,95543.06
2022-10-09T18:23:22.757Z,95544.78
2022-10-09T18:25:49.748Z,95525.56
2022-10-09T18:28:16.678Z,95527.28
2022-10-09T18:30:46.831Z,95551.22
2022-10-09T18:33:13.506Z,95545.81
2022-10-09T18:35:41.735Z,95547.50
2022-10-09T18:38:09.565Z,95540.16
2022-10-09T18:40:45.662Z,95551.13
2022-10-09T18:43:14.371Z,95563.63
2022-10-09T18:45:47.500Z,95543.13
2022-10-09T18:48:16.192Z,95524.22
2022-10-09T18:50:44.325Z,95573.53
2022-10-09T18:53:11.868Z,95545.59
2022-10-09T18:55:39.802Z,95574.59
2022-10-09T18:58:06.672Z,95572.50
2022-10-09T19:00:37.317Z,95563.78
2022-10-09T19:03:04.298Z,95582.25
2022-10-09T19:05:31.095Z,95576.41
2022-10-09T19:07:58.205Z,95579.47
2022-10-09T19:10:25.324Z,95567.44
2022-10-09T19:12:52.760Z,95586.72
2022-10-09T19:15:19.726Z,95591.16
2022-10-09T19:17:46.674Z,95585.88
2022-10-09T19:20:13.274Z,95597.53
2022-10-09T19:22:40.655Z,95606.69
2022-10-09T19:25:07.901Z,95581.44
2022-10-09T19:27:34.706Z,95597.03
2022-10-09T19:30:02.134Z,95613.31
2022-10-09T19:32:29.054Z,95613.50
2022-10-09T19:34:55.945Z,95608.56
2022-10-09T19:37:27.397Z,95606.59
2022-10-09T19:39:56.659Z,95606.94
2022-10-09T19:42:24.815Z,95597.06
2022-10-09T19:44:51.491Z,95613.00
2022-10-09T19:47:19.500Z,95596.38
2022-10-09T19:49:46.253Z,95596.09
2022-10-09T19:52:13.333Z,95620.16
2022-10-09T19:54:40.443Z,95619.75
2022-10-09T19:57:07.398Z,95612.00
2022-10-09T19:59:34.215Z,95612.63
2022-10-09T20:02:01.125Z,95601.09
2022-10-09T20:04:28.140Z,95618.53
2022-10-09T20:06:55.476Z,95619.22
2022-10-09T20:09:22.545Z,95600.25
2022-10-09T20:11:49.965Z,95640.56
2022-10-09T20:14:16.781Z,95642.72
2022-10-09T20:16:44.167Z,95635.66
2022-10-09T20:19:12.222Z,95640.13
2022-10-09T20:21:39.170Z,95642.59
2022-10-09T20:24:06.837Z,95638.38
2022-10-09T20:26:33.723Z,95639.44
2022-10-09T20:29:00.478Z,95638.38
2022-10-09T20:31:28.189Z,95639.66
2022-10-09T20:33:55.837Z,95633.88
2022-10-09T20:36:22.566Z,95631.91
2022-10-09T20:38:49.708Z,95636.91
2022-10-09T20:41:16.981Z,95644.38
2022-10-09T20:43:43.580Z,95628.31
2022-10-09T20:46:13.706Z,95645.88
2022-10-09T20:48:44.433Z,95643.94
2022-10-09T20:51:11.087Z,95646.84
2022-10-09T20:53:37.850Z,95648.84
2022-10-09T20:56:09.889Z,95638.34
2022-10-09T20:58:37.085Z,95650.38
2022-10-09T21:01:06.241Z,95657.06
2022-10-09T21:03:34.355Z,95646.22
2022-10-09T21:06:05.556Z,95635.00
2022-10-09T21:08:32.303Z,95648.66
2022-10-09T21:10:59.875Z,95644.38
2022-10-09T21:13:26.983Z,95646.81
2022-10-09T21:15:53.867Z,95622.69
2022-10-09T21:18:21.370Z,95648.19
2022-10-09T21:20:49.409Z,95640.16
2022-10-09T21:23:17.915Z,95642.59
2022-10-09T21:25:52.517Z,95634.38
2022-10-09T21:28:20.918Z,95638.63
2022-10-09T21:30:48.103Z,95656.63
2022-10-09T21:33:16.466Z,95650.97
2022-10-09T21:35:46.065Z,95645.38
2022-10-09T21:38:17.141Z,95645.69
2022-10-09T21:40:45.031Z,95649.66
2022-10-09T21:43:12.701Z,95651.66
2022-10-09T21:45:40.255Z,95639.66
2022-10-09T21:48:07.847Z,95638.75
2022-10-09T21:50:36.687Z,95650.31
2022-10-09T21:53:04.279Z,95635.47
2022-10-09T21:55:31.220Z,95628.91
2022-10-09T21:57:58.114Z,95638.50
2022-10-09T22:00:24.991Z,95636.97
2022-10-09T22:02:52.141Z,95647.56
2022-10-09T22:05:19.276Z,95646.69
2022-10-09T22:07:46.019Z,95642.09
2022-10-09T22:10:12.844Z,95647.00
2022-10-09T22:12:39.821Z,95638.63
2022-10-09T22:15:07.073Z,95638.06
2022-10-09T22:17:34.154Z,95648.84
2022-10-09T22:20:00.929Z,95643.72
2022-10-09T22:22:27.805Z,95637.03
2022-10-09T22:24:54.491Z,95640.66
2022-10-09T22:27:21.153Z,95661.47
2022-10-09T22:29:47.966Z,95656.00
2022-10-09T22:32:14.640Z,95647.03
2022-10-09T22:34:41.272Z,95655.06
2022-10-09T22:37:08.088Z,95660.41
2022-10-09T22:39:34.956Z,95670.13
2022-10-09T22:42:01.593Z,95672.09
2022-10-09T22:44:28.616Z,95681.53
2022-10-09T22:46:55.323Z,95671.63
2022-10-09T22:49:22.154Z,95684.09
2022-10-09T22:51:49.112Z,95689.25
2022-10-09T22:54:15.999Z,95684.41
2022-10-09T22:56:45.025Z,95695.47
2022-10-09T22:59:14.631Z,95699.25
2022-10-09T23:01:49.119Z,95692.59
2022-10-09T23:04:17.439Z,95684.63
2022-10-09T23:06:44.931Z,95680.38
2022-10-09T23:09:14.564Z,95694.50
2022-10-09T23:11:42.030Z,95706.94
2022-10-09T23:14:08.864Z,95687.63
2022-10-09T23:16:35.715Z,95701.66
2022-10-09T23:19:06.673Z,95710.03
2022-10-09T23:21:35.331Z,95705.84
2022-10-09T23:24:02.403Z,95705.53
2022-10-09T23:26:31.489Z,95712.03
2022-10-09T23:29:02.770Z,95712.03
2022-10-09T23:31:29.862Z,95712.81
2022-10-09T23:33:57.599Z,95693.06
2022-10-09T23:36:27.107Z,95710.41
2022-10-09T23:38:55.121Z,95697.53
2022-10-09T23:41:24.128Z,95697.41
2022-10-09T23:43:51.805Z,95692.06
2022-10-09T23:46:20.878Z,95700.38
2022-10-09T23:48:49.230Z,95701.91
2022-10-09T23:51:17.036Z,95713.84
2022-10-09T23:53:44.247Z,95714.88
2022-10-09T23:56:23.427Z,95727.25
2022-10-09T23:58:51.103Z,95734.63
